Portada
Imágenes satélite Pronóstico 15 díasClimaPredicción Marítima Ciclones Rayo AeropuertosFAQ Noticias Acerca
El tiempo : Europa África América del Norte América del Sur Asia Australia-Oceanía Otros
Idiomas Contacto

Vitória, Espírito Santo, Brasil

latitud: 20-16S, longitud: 040-17W, altitud: 4 m


METAR: SBVT 231300Z 01005KT CAVOK 27/16 Q1019
short-TAF: expira (8404 horas)
long-TAF: SBVT 231000Z 2312/2412 13010KT 9999 SCT025 TX25/2315Z TN20/2405Z RMK PDG

Hora: 10:22 (13:22 UTC)

Observación

El informe se hizo hace 22 minutos, a las 13:00 UTC  
Viento 05 kt del norte
Temperatura 27°C
Humedad 51%
Presión 1019 hPa
Visibilidad 10 km o más
sin nubes por debajo de 1500 m y sin presencia de cumulonimbus.

Cambiar las unidades

Pronóstico

El informe se hizo hace 2 horas y 46 minutos, a las 10:36 UTC  
Pronóstico válido del 23 a las 12 UTC al 24 a las 12 UTC
Viento 10 kt del sureste
Visibilidad 10 km o más
Nubes dispersas a una altura de 2500 ft
La información que se ofrece en estas páginas está sujeta a una cláusula de exención de responsabilidad
El tiempo : Europa África América del Norte América del Sur Asia Australia-Oceanía Otros
Imágenes satélite Pronóstico 15 díasClimaPredicción Marítima Ciclones Rayo AeropuertosFAQ Idiomas Contacto Noticias Acerca